sensor_id;sensor_type;location;lat;lon;timestamp;temperature;humidity
67722;SHT31;58309;45.292;11.820;2023-02-02T00:01:53;0.65;99.99
67722;SHT31;58309;45.292;11.820;2023-02-02T00:04:23;0.69;99.99
67722;SHT31;58309;45.292;11.820;2023-02-02T00:06:49;0.62;99.99
67722;SHT31;58309;45.292;11.820;2023-02-02T00:09:16;0.54;99.99
67722;SHT31;58309;45.292;11.820;2023-02-02T00:11:43;0.47;99.99
67722;SHT31;58309;45.292;11.820;2023-02-02T00:14:09;0.25;99.99
67722;SHT31;58309;45.292;11.820;2023-02-02T00:19:14;-0.07;99.99
67722;SHT31;58309;45.292;11.820;2023-02-02T00:21:41;-0.18;99.99
67722;SHT31;58309;45.292;11.820;2023-02-02T00:24:09;-0.31;99.99
67722;SHT31;58309;45.292;11.820;2023-02-02T00:26:36;-0.31;99.99
67722;SHT31;58309;45.292;11.820;2023-02-02T00:29:02;-0.41;99.99
67722;SHT31;58309;45.292;11.820;2023-02-02T00:31:27;-0.35;99.99
67722;SHT31;58309;45.292;11.820;2023-02-02T00:33:53;-0.32;99.99
67722;SHT31;58309;45.292;11.820;2023-02-02T00:36:19;-0.44;99.99
67722;SHT31;58309;45.292;11.820;2023-02-02T00:38:46;-0.42;99.99
67722;SHT31;58309;45.292;11.820;2023-02-02T00:41:12;-0.42;99.99
67722;SHT31;58309;45.292;11.820;2023-02-02T00:43:38;-0.39;99.99
67722;SHT31;58309;45.292;11.820;2023-02-02T00:46:03;-0.45;99.99
67722;SHT31;58309;45.292;11.820;2023-02-02T00:48:29;-0.54;99.99
67722;SHT31;58309;45.292;11.820;2023-02-02T00:50:55;-0.54;99.99
67722;SHT31;58309;45.292;11.820;2023-02-02T00:53:21;-0.54;99.99
67722;SHT31;58309;45.292;11.820;2023-02-02T00:55:47;-0.41;99.99
67722;SHT31;58309;45.292;11.820;2023-02-02T00:58:12;-0.34;99.99
67722;SHT31;58309;45.292;11.820;2023-02-02T01:00:38;-0.42;99.99
67722;SHT31;58309;45.292;11.820;2023-02-02T01:03:04;-0.48;99.99
67722;SHT31;58309;45.292;11.820;2023-02-02T01:05:32;-0.61;99.99
67722;SHT31;58309;45.292;11.820;2023-02-02T01:07:58;-0.68;99.99
67722;SHT31;58309;45.292;11.820;2023-02-02T01:10:24;-0.68;99.99
67722;SHT31;58309;45.292;11.820;2023-02-02T01:12:49;-0.73;99.99
67722;SHT31;58309;45.292;11.820;2023-02-02T01:15:15;-0.73;99.99
67722;SHT31;58309;45.292;11.820;2023-02-02T01:17:41;-0.72;99.99
67722;SHT31;58309;45.292;11.820;2023-02-02T01:20:07;-0.70;99.99
67722;SHT31;58309;45.292;11.820;2023-02-02T01:22:33;-0.78;99.99
67722;SHT31;58309;45.292;11.820;2023-02-02T01:24:59;-0.80;99.99
67722;SHT31;58309;45.292;11.820;2023-02-02T01:27:25;-0.70;99.99
67722;SHT31;58309;45.292;11.820;2023-02-02T01:29:50;-0.59;99.99
67722;SHT31;58309;45.292;11.820;2023-02-02T01:32:16;-0.68;99.99
67722;SHT31;58309;45.292;11.820;2023-02-02T01:34:41;-0.80;99.99
67722;SHT31;58309;45.292;11.820;2023-02-02T01:37:08;-0.93;99.99
67722;SHT31;58309;45.292;11.820;2023-02-02T01:39:34;-1.04;99.99
67722;SHT31;58309;45.292;11.820;2023-02-02T01:41:59;-1.04;99.99
67722;SHT31;58309;45.292;11.820;2023-02-02T01:47:25;-1.20;99.99
67722;SHT31;58309;45.292;11.820;2023-02-02T01:49:52;-1.21;99.99
67722;SHT31;58309;45.292;11.820;2023-02-02T01:52:21;-1.20;99.99
67722;SHT31;58309;45.292;11.820;2023-02-02T01:55:00;-1.26;99.99
67722;SHT31;58309;45.292;11.820;2023-02-02T01:57:36;-1.39;99.99
67722;SHT31;58309;45.292;11.820;2023-02-02T02:00:10;-1.34;99.99
67722;SHT31;58309;45.292;11.820;2023-02-02T02:02:38;-1.34;99.99
67722;SHT31;58309;45.292;11.820;2023-02-02T02:05:05;-1.40;99.99
67722;SHT31;58309;45.292;11.820;2023-02-02T02:07:31;-1.37;99.99
67722;SHT31;58309;45.292;11.820;2023-02-02T02:09:56;-1.39;99.99
67722;SHT31;58309;45.292;11.820;2023-02-02T02:12:22;-1.48;99.99
67722;SHT31;58309;45.292;11.820;2023-02-02T02:14:49;-1.60;99.99
67722;SHT31;58309;45.292;11.820;2023-02-02T02:17:52;-1.64;99.99
67722;SHT31;58309;45.292;11.820;2023-02-02T02:34:38;-1.54;99.99
67722;SHT31;58309;45.292;11.820;2023-02-02T02:39:41;-1.75;99.99
67722;SHT31;58309;45.292;11.820;2023-02-02T02:42:13;-1.54;99.99
67722;SHT31;58309;45.292;11.820;2023-02-02T02:44:41;-1.58;99.99
67722;SHT31;58309;45.292;11.820;2023-02-02T02:47:07;-1.57;99.99
67722;SHT31;58309;45.292;11.820;2023-02-02T02:49:44;-1.43;99.99
67722;SHT31;58309;45.292;11.820;2023-02-02T02:52:10;-1.43;99.99
67722;SHT31;58309;45.292;11.820;2023-02-02T02:54:56;-1.29;99.99
67722;SHT31;58309;45.292;11.820;2023-02-02T03:10:39;-1.03;99.99
67722;SHT31;58309;45.292;11.820;2023-02-02T03:13:08;-0.93;99.99
67722;SHT31;58309;45.292;11.820;2023-02-02T03:15:33;-0.99;99.99
67722;SHT31;58309;45.292;11.820;2023-02-02T03:17:59;-1.00;99.99
67722;SHT31;58309;45.292;11.820;2023-02-02T03:20:25;-0.92;99.99
67722;SHT31;58309;45.292;11.820;2023-02-02T03:22:50;-1.03;99.99
67722;SHT31;58309;45.292;11.820;2023-02-02T03:25:16;-0.93;99.99
67722;SHT31;58309;45.292;11.820;2023-02-02T03:27:41;-0.95;99.99
67722;SHT31;58309;45.292;11.820;2023-02-02T03:30:11;-1.07;99.99
67722;SHT31;58309;45.292;11.820;2023-02-02T03:32:38;-0.93;99.99
67722;SHT31;58309;45.292;11.820;2023-02-02T03:35:04;-0.95;99.99
67722;SHT31;58309;45.292;11.820;2023-02-02T03:37:30;-0.90;99.99
67722;SHT31;58309;45.292;11.820;2023-02-02T03:39:55;-0.92;99.99
67722;SHT31;58309;45.292;11.820;2023-02-02T03:42:21;-1.04;99.99
67722;SHT31;58309;45.292;11.820;2023-02-02T03:44:46;-1.14;99.99
67722;SHT31;58309;45.292;11.820;2023-02-02T03:47:12;-1.20;99.99
67722;SHT31;58309;45.292;11.820;2023-02-02T03:49:37;-1.06;99.99
67722;SHT31;58309;45.292;11.820;2023-02-02T03:52:03;-0.90;99.99
67722;SHT31;58309;45.292;11.820;2023-02-02T03:54:29;-0.76;99.99
67722;SHT31;58309;45.292;11.820;2023-02-02T03:56:55;-0.93;99.99
67722;SHT31;58309;45.292;11.820;2023-02-02T03:59:21;-0.99;99.99
67722;SHT31;58309;45.292;11.820;2023-02-02T04:01:46;-0.97;99.99
67722;SHT31;58309;45.292;11.820;2023-02-02T04:04:14;-1.06;99.99
67722;SHT31;58309;45.292;11.820;2023-02-02T04:06:39;-1.09;99.99
67722;SHT31;58309;45.292;11.820;2023-02-02T04:09:05;-1.00;99.99
67722;SHT31;58309;45.292;11.820;2023-02-02T04:11:30;-0.73;99.99
67722;SHT31;58309;45.292;11.820;2023-02-02T04:13:56;-0.72;99.99
67722;SHT31;58309;45.292;11.820;2023-02-02T04:16:21;-0.78;99.99
67722;SHT31;58309;45.292;11.820;2023-02-02T04:18:47;-0.82;99.99
67722;SHT31;58309;45.292;11.820;2023-02-02T04:21:12;-0.73;99.99
67722;SHT31;58309;45.292;11.820;2023-02-02T04:23:38;-0.65;99.99
67722;SHT31;58309;45.292;11.820;2023-02-02T04:26:04;-0.68;99.99
67722;SHT31;58309;45.292;11.820;2023-02-02T04:28:31;-0.62;99.99
67722;SHT31;58309;45.292;11.820;2023-02-02T04:30:57;-0.64;99.99
67722;SHT31;58309;45.292;11.820;2023-02-02T04:33:24;-0.78;99.99
67722;SHT31;58309;45.292;11.820;2023-02-02T04:35:50;-0.89;99.99
67722;SHT31;58309;45.292;11.820;2023-02-02T04:38:16;-1.04;99.99
67722;SHT31;58309;45.292;11.820;2023-02-02T04:40:43;-1.19;99.99
67722;SHT31;58309;45.292;11.820;2023-02-02T04:43:10;-1.20;99.99
67722;SHT31;58309;45.292;11.820;2023-02-02T04:45:36;-1.29;99.99
67722;SHT31;58309;45.292;11.820;2023-02-02T04:48:02;-1.39;99.99
67722;SHT31;58309;45.292;11.820;2023-02-02T04:50:28;-1.36;99.99
67722;SHT31;58309;45.292;11.820;2023-02-02T04:52:54;-1.30;99.99
67722;SHT31;58309;45.292;11.820;2023-02-02T04:55:20;-1.39;99.99
67722;SHT31;58309;45.292;11.820;2023-02-02T04:57:45;-1.37;99.99
67722;SHT31;58309;45.292;11.820;2023-02-02T05:00:11;-1.20;99.99
67722;SHT31;58309;45.292;11.820;2023-02-02T05:02:38;-1.29;99.99
67722;SHT31;58309;45.292;11.820;2023-02-02T05:05:06;-1.29;99.99
67722;SHT31;58309;45.292;11.820;2023-02-02T05:07:32;-1.13;99.99
67722;SHT31;58309;45.292;11.820;2023-02-02T05:09:57;-1.11;99.99
67722;SHT31;58309;45.292;11.820;2023-02-02T05:12:23;-1.21;99.99
67722;SHT31;58309;45.292;11.820;2023-02-02T05:14:48;-1.21;99.99
67722;SHT31;58309;45.292;11.820;2023-02-02T05:17:14;-1.13;99.99
67722;SHT31;58309;45.292;11.820;2023-02-02T05:19:40;-1.03;99.99
67722;SHT31;58309;45.292;11.820;2023-02-02T05:22:06;-1.09;99.99
67722;SHT31;58309;45.292;11.820;2023-02-02T05:24:32;-1.27;99.99
67722;SHT31;58309;45.292;11.820;2023-02-02T05:26:58;-1.37;99.99
67722;SHT31;58309;45.292;11.820;2023-02-02T05:29:29;-1.51;99.99
67722;SHT31;58309;45.292;11.820;2023-02-02T05:31:55;-1.68;99.99
67722;SHT31;58309;45.292;11.820;2023-02-02T05:34:21;-1.89;99.99
67722;SHT31;58309;45.292;11.820;2023-02-02T05:36:47;-1.96;99.99
67722;SHT31;58309;45.292;11.820;2023-02-02T05:39:13;-1.82;99.99
67722;SHT31;58309;45.292;11.820;2023-02-02T05:41:39;-1.82;99.99
67722;SHT31;58309;45.292;11.820;2023-02-02T05:44:04;-1.52;99.99
67722;SHT31;58309;45.292;11.820;2023-02-02T05:46:30;-1.41;99.99
67722;SHT31;58309;45.292;11.820;2023-02-02T05:48:56;-1.55;99.99
67722;SHT31;58309;45.292;11.820;2023-02-02T05:51:36;-1.54;99.99
67722;SHT31;58309;45.292;11.820;2023-02-02T05:54:03;-1.71;99.99
67722;SHT31;58309;45.292;11.820;2023-02-02T05:56:28;-1.71;99.99
67722;SHT31;58309;45.292;11.820;2023-02-02T05:58:54;-1.54;99.99
67722;SHT31;58309;45.292;11.820;2023-02-02T06:01:19;-1.37;99.99
67722;SHT31;58309;45.292;11.820;2023-02-02T06:03:46;-1.30;99.99
67722;SHT31;58309;45.292;11.820;2023-02-02T06:06:11;-1.37;99.99
67722;SHT31;58309;45.292;11.820;2023-02-02T06:08:37;-1.46;99.99
67722;SHT31;58309;45.292;11.820;2023-02-02T06:11:10;-1.44;99.99
67722;SHT31;58309;45.292;11.820;2023-02-02T06:13:36;-1.54;99.99
67722;SHT31;58309;45.292;11.820;2023-02-02T06:16:02;-1.52;99.99
67722;SHT31;58309;45.292;11.820;2023-02-02T06:18:28;-1.60;99.99
67722;SHT31;58309;45.292;11.820;2023-02-02T06:20:57;-1.74;99.99
67722;SHT31;58309;45.292;11.820;2023-02-02T06:23:23;-1.79;99.99
67722;SHT31;58309;45.292;11.820;2023-02-02T06:25:49;-1.86;99.99
67722;SHT31;58309;45.292;11.820;2023-02-02T06:28:14;-1.88;99.99
67722;SHT31;58309;45.292;11.820;2023-02-02T06:30:40;-1.78;99.99
67722;SHT31;58309;45.292;11.820;2023-02-02T06:33:05;-1.64;99.99
67722;SHT31;58309;45.292;11.820;2023-02-02T06:35:31;-1.51;99.99
67722;SHT31;58309;45.292;11.820;2023-02-02T06:37:57;-1.52;99.99
67722;SHT31;58309;45.292;11.820;2023-02-02T06:40:24;-1.50;99.99
67722;SHT31;58309;45.292;11.820;2023-02-02T06:42:57;-1.48;99.99
67722;SHT31;58309;45.292;11.820;2023-02-02T06:45:23;-1.54;99.99
67722;SHT31;58309;45.292;11.820;2023-02-02T06:47:49;-1.61;99.99
67722;SHT31;58309;45.292;11.820;2023-02-02T06:50:14;-1.60;99.99
67722;SHT31;58309;45.292;11.820;2023-02-02T06:52:49;-1.54;99.99
67722;SHT31;58309;45.292;11.820;2023-02-02T06:55:15;-1.54;99.99
67722;SHT31;58309;45.292;11.820;2023-02-02T06:57:41;-1.54;99.99
67722;SHT31;58309;45.292;11.820;2023-02-02T07:00:07;-1.46;99.99
67722;SHT31;58309;45.292;11.820;2023-02-02T07:02:33;-1.43;99.99
67722;SHT31;58309;45.292;11.820;2023-02-02T07:04:59;-1.46;99.99
67722;SHT31;58309;45.292;11.820;2023-02-02T07:07:25;-1.55;99.99
67722;SHT31;58309;45.292;11.820;2023-02-02T07:09:50;-1.54;99.99
67722;SHT31;58309;45.292;11.820;2023-02-02T07:12:16;-1.55;99.99
67722;SHT31;58309;45.292;11.820;2023-02-02T07:14:44;-1.58;99.99
67722;SHT31;58309;45.292;11.820;2023-02-02T07:17:10;-1.55;99.99
67722;SHT31;58309;45.292;11.820;2023-02-02T07:19:36;-1.52;99.99
67722;SHT31;58309;45.292;11.820;2023-02-02T07:22:01;-1.50;99.99
67722;SHT31;58309;45.292;11.820;2023-02-02T07:24:27;-1.47;99.99
67722;SHT31;58309;45.292;11.820;2023-02-02T07:26:53;-1.43;99.99
67722;SHT31;58309;45.292;11.820;2023-02-02T07:29:19;-1.29;99.99
67722;SHT31;58309;45.292;11.820;2023-02-02T07:31:44;-1.14;99.99
67722;SHT31;58309;45.292;11.820;2023-02-02T07:34:10;-1.03;99.99
67722;SHT31;58309;45.292;11.820;2023-02-02T07:36:35;-1.04;99.99
67722;SHT31;58309;45.292;11.820;2023-02-02T07:39:02;-1.03;99.99
67722;SHT31;58309;45.292;11.820;2023-02-02T07:41:29;-0.99;99.99
67722;SHT31;58309;45.292;11.820;2023-02-02T07:43:54;-0.83;99.99
67722;SHT31;58309;45.292;11.820;2023-02-02T07:46:20;-0.70;99.99
67722;SHT31;58309;45.292;11.820;2023-02-02T07:48:45;-0.61;99.99
67722;SHT31;58309;45.292;11.820;2023-02-02T07:51:14;-0.61;99.99
67722;SHT31;58309;45.292;11.820;2023-02-02T07:53:44;-0.59;99.99
67722;SHT31;58309;45.292;11.820;2023-02-02T07:56:16;-0.47;99.99
67722;SHT31;58309;45.292;11.820;2023-02-02T07:58:42;-0.34;99.99
67722;SHT31;58309;45.292;11.820;2023-02-02T08:01:10;-0.25;99.99
67722;SHT31;58309;45.292;11.820;2023-02-02T08:03:37;-0.22;99.99
67722;SHT31;58309;45.292;11.820;2023-02-02T08:06:11;-0.18;99.99
67722;SHT31;58309;45.292;11.820;2023-02-02T08:08:38;-0.07;99.99
67722;SHT31;58309;45.292;11.820;2023-02-02T08:11:04;-0.10;99.99
67722;SHT31;58309;45.292;11.820;2023-02-02T08:13:32;-0.08;99.99
67722;SHT31;58309;45.292;11.820;2023-02-02T08:15:57;-0.04;99.99
67722;SHT31;58309;45.292;11.820;2023-02-02T08:18:23;-0.25;99.99
67722;SHT31;58309;45.292;11.820;2023-02-02T08:20:48;-0.21;99.99
67722;SHT31;58309;45.292;11.820;2023-02-02T08:23:16;-0.08;99.99
67722;SHT31;58309;45.292;11.820;2023-02-02T08:25:50;0.07;99.99
67722;SHT31;58309;45.292;11.820;2023-02-02T08:28:16;0.11;99.99
67722;SHT31;58309;45.292;11.820;2023-02-02T08:30:42;0.25;99.99
67722;SHT31;58309;45.292;11.820;2023-02-02T08:33:08;0.31;99.99
67722;SHT31;58309;45.292;11.820;2023-02-02T08:35:33;0.25;99.98
67722;SHT31;58309;45.292;11.820;2023-02-02T08:37:59;0.24;99.99
67722;SHT31;58309;45.292;11.820;2023-02-02T08:40:29;0.34;99.99
67722;SHT31;58309;45.292;11.820;2023-02-02T08:42:54;0.31;99.99
67722;SHT31;58309;45.292;11.820;2023-02-02T08:45:20;0.27;99.99
67722;SHT31;58309;45.292;11.820;2023-02-02T08:47:46;0.36;99.99
67722;SHT31;58309;45.292;11.820;2023-02-02T08:50:11;0.50;99.99
67722;SHT31;58309;45.292;11.820;2023-02-02T08:52:37;0.37;99.75
67722;SHT31;58309;45.292;11.820;2023-02-02T08:55:03;0.44;99.99
67722;SHT31;58309;45.292;11.820;2023-02-02T08:57:28;0.30;99.67
67722;SHT31;58309;45.292;11.820;2023-02-02T08:59:57;0.48;99.99
67722;SHT31;58309;45.292;11.820;2023-02-02T09:02:22;0.52;99.99
67722;SHT31;58309;45.292;11.820;2023-02-02T09:04:48;0.47;99.37
67722;SHT31;58309;45.292;11.820;2023-02-02T09:07:13;0.66;99.99
67722;SHT31;58309;45.292;11.820;2023-02-02T09:09:39;0.79;99.99
67722;SHT31;58309;45.292;11.820;2023-02-02T09:12:05;0.62;98.30
67722;SHT31;58309;45.292;11.820;2023-02-02T09:14:30;0.73;99.70
67722;SHT31;58309;45.292;11.820;2023-02-02T09:16:56;0.69;99.65
67722;SHT31;58309;45.292;11.820;2023-02-02T09:19:21;0.99;99.99
67722;SHT31;58309;45.292;11.820;2023-02-02T09:21:50;1.19;99.57
67722;SHT31;58309;45.292;11.820;2023-02-02T09:24:16;1.32;99.03
67722;SHT31;58309;45.292;11.820;2023-02-02T09:26:43;1.86;99.58
67722;SHT31;58309;45.292;11.820;2023-02-02T09:29:13;2.25;97.81
67722;SHT31;58309;45.292;11.820;2023-02-02T09:31:39;2.44;97.21
67722;SHT31;58309;45.292;11.820;2023-02-02T09:34:07;2.44;95.76
67722;SHT31;58309;45.292;11.820;2023-02-02T09:36:33;2.29;96.43
67722;SHT31;58309;45.292;11.820;2023-02-02T09:38:59;2.58;95.78
67722;SHT31;58309;45.292;11.820;2023-02-02T09:50:04;4.99;89.49
67722;SHT31;58309;45.292;11.820;2023-02-02T09:57:53;4.11;91.45
67722;SHT31;58309;45.292;11.820;2023-02-02T10:02:55;4.41;89.44
67722;SHT31;58309;45.292;11.820;2023-02-02T10:05:28;4.72;89.21
67722;SHT31;58309;45.292;11.820;2023-02-02T10:07:57;4.71;87.61
67722;SHT31;58309;45.292;11.820;2023-02-02T10:10:34;4.58;89.18
67722;SHT31;58309;45.292;11.820;2023-02-02T10:13:03;4.54;87.77
67722;SHT31;58309;45.292;11.820;2023-02-02T10:16:06;4.96;88.26
67722;SHT31;58309;45.292;11.820;2023-02-02T10:21:22;6.83;83.05
67722;SHT31;58309;45.292;11.820;2023-02-02T10:23:50;7.21;81.50
67722;SHT31;58309;45.292;11.820;2023-02-02T10:26:31;6.56;81.56
67722;SHT31;58309;45.292;11.820;2023-02-02T10:37:21;8.32;77.54
67722;SHT31;58309;45.292;11.820;2023-02-02T10:40:14;9.11;76.31
67722;SHT31;58309;45.292;11.820;2023-02-02T10:45:36;10.54;72.89
67722;SHT31;58309;45.292;11.820;2023-02-02T10:48:15;10.54;70.55
67722;SHT31;58309;45.292;11.820;2023-02-02T10:50:53;10.22;73.39
67722;SHT31;58309;45.292;11.820;2023-02-02T10:53:19;10.49;70.73
67722;SHT31;58309;45.292;11.820;2023-02-02T10:56:05;11.18;70.70
67722;SHT31;58309;45.292;11.820;2023-02-02T11:01:29;10.80;71.92
67722;SHT31;58309;45.292;11.820;2023-02-02T11:03:55;10.19;73.31
67722;SHT31;58309;45.292;11.820;2023-02-02T11:06:39;10.65;73.16
67722;SHT31;58309;45.292;11.820;2023-02-02T11:09:17;11.42;69.34
67722;SHT31;58309;45.292;11.820;2023-02-02T11:11:45;12.30;67.92
67722;SHT31;58309;45.292;11.820;2023-02-02T11:14:17;10.90;70.20
67722;SHT31;58309;45.292;11.820;2023-02-02T11:16:59;11.72;68.71
67722;SHT31;58309;45.292;11.820;2023-02-02T11:19:28;12.52;67.07
67722;SHT31;58309;45.292;11.820;2023-02-02T11:21:56;12.31;67.62
67722;SHT31;58309;45.292;11.820;2023-02-02T11:24:54;12.81;66.33
67722;SHT31;58309;45.292;11.820;2023-02-02T11:27:38;12.59;66.00
67722;SHT31;58309;45.292;11.820;2023-02-02T11:30:21;13.26;65.42
67722;SHT31;58309;45.292;11.820;2023-02-02T11:32:48;14.05;62.37
67722;SHT31;58309;45.292;11.820;2023-02-02T11:35:27;14.62;59.65
67722;SHT31;58309;45.292;11.820;2023-02-02T11:38:08;13.51;62.63
67722;SHT31;58309;45.292;11.820;2023-02-02T11:40:37;14.46;59.88
67722;SHT31;58309;45.292;11.820;2023-02-02T11:43:16;14.29;62.27
67722;SHT31;58309;45.292;11.820;2023-02-02T11:45:43;13.86;62.47
67722;SHT31;58309;45.292;11.820;2023-02-02T11:48:18;13.58;64.10
67722;SHT31;58309;45.292;11.820;2023-02-02T11:50:47;13.98;62.11
67722;SHT31;58309;45.292;11.820;2023-02-02T11:53:39;15.08;58.47
67722;SHT31;58309;45.292;11.820;2023-02-02T11:56:10;15.25;58.16
67722;SHT31;58309;45.292;11.820;2023-02-02T12:01:25;13.26;64.22
67722;SHT31;58309;45.292;11.820;2023-02-02T12:04:00;13.26;63.85
67722;SHT31;58309;45.292;11.820;2023-02-02T12:06:33;13.20;64.34
67722;SHT31;58309;45.292;11.820;2023-02-02T12:09:00;13.58;64.05
67722;SHT31;58309;45.292;11.820;2023-02-02T12:11:47;14.19;62.29
67722;SHT31;58309;45.292;11.820;2023-02-02T12:14:44;14.06;62.06
67722;SHT31;58309;45.292;11.820;2023-02-02T12:39:26;15.00;58.58
67722;SHT31;58309;45.292;11.820;2023-02-02T12:42:06;14.50;59.69
67722;SHT31;58309;45.292;11.820;2023-02-02T12:45:02;14.46;59.67
67722;SHT31;58309;45.292;11.820;2023-02-02T12:50:45;12.89;65.55
67722;SHT31;58309;45.292;11.820;2023-02-02T12:53:44;13.03;63.67
67722;SHT31;58309;45.292;11.820;2023-02-02T13:01:44;12.54;68.30
67722;SHT31;58309;45.292;11.820;2023-02-02T13:09:30;12.34;67.76
67722;SHT31;58309;45.292;11.820;2023-02-02T13:12:06;12.21;68.14
67722;SHT31;58309;45.292;11.820;2023-02-02T13:15:06;11.82;69.51
67722;SHT31;58309;45.292;11.820;2023-02-02T13:22:46;11.14;71.75
67722;SHT31;58309;45.292;11.820;2023-02-02T13:25:28;11.11;73.00
67722;SHT31;58309;45.292;11.820;2023-02-02T13:27:57;11.16;72.92
67722;SHT31;58309;45.292;11.820;2023-02-02T13:30:30;10.98;74.26
67722;SHT31;58309;45.292;11.820;2023-02-02T13:33:25;10.84;74.06
67722;SHT31;58309;45.292;11.820;2023-02-02T13:35:54;10.73;74.80
67722;SHT31;58309;45.292;11.820;2023-02-02T13:38:24;10.59;75.56
67722;SHT31;58309;45.292;11.820;2023-02-02T13:40:53;10.20;77.11
67722;SHT31;58309;45.292;11.820;2023-02-02T13:54:39;10.01;77.92
67722;SHT31;58309;45.292;11.820;2023-02-02T14:02:42;9.81;78.69
67722;SHT31;58309;45.292;11.820;2023-02-02T14:05:23;9.83;78.67
67722;SHT31;58309;45.292;11.820;2023-02-02T14:07:55;9.83;78.49
67722;SHT31;58309;45.292;11.820;2023-02-02T14:13:18;9.92;77.83
67722;SHT31;58309;45.292;11.820;2023-02-02T14:19:01;9.83;78.42
67722;SHT31;58309;45.292;11.820;2023-02-02T14:26:46;10.08;77.69
67722;SHT31;58309;45.292;11.820;2023-02-02T14:31:57;10.13;77.58
67722;SHT31;58309;45.292;11.820;2023-02-02T14:45:44;10.24;78.30
67722;SHT31;58309;45.292;11.820;2023-02-02T14:48:19;10.19;78.46
67722;SHT31;58309;45.292;11.820;2023-02-02T14:53:29;10.13;78.57
67722;SHT31;58309;45.292;11.820;2023-02-02T14:58:57;9.99;79.28
67722;SHT31;58309;45.292;11.820;2023-02-02T15:01:34;9.81;80.12
67722;SHT31;58309;45.292;11.820;2023-02-02T15:04:24;9.75;79.97
67722;SHT31;58309;45.292;11.820;2023-02-02T15:06:51;9.64;80.30
67722;SHT31;58309;45.292;11.820;2023-02-02T15:23:07;9.17;81.96
67722;SHT31;58309;45.292;11.820;2023-02-02T15:25:58;9.10;81.99
67722;SHT31;58309;45.292;11.820;2023-02-02T15:31:17;9.07;82.12
67722;SHT31;58309;45.292;11.820;2023-02-02T15:33:51;8.90;82.75
67722;SHT31;58309;45.292;11.820;2023-02-02T15:36:24;8.75;83.25
67722;SHT31;58309;45.292;11.820;2023-02-02T15:38:53;8.62;83.76
67722;SHT31;58309;45.292;11.820;2023-02-02T15:41:36;8.41;84.44
67722;SHT31;58309;45.292;11.820;2023-02-02T15:44:26;8.24;84.75
67722;SHT31;58309;45.292;11.820;2023-02-02T15:46:53;8.07;85.97
67722;SHT31;58309;45.292;11.820;2023-02-02T15:51:47;7.67;87.45
67722;SHT31;58309;45.292;11.820;2023-02-02T15:54:25;7.56;87.81
67722;SHT31;58309;45.292;11.820;2023-02-02T15:56:52;7.43;88.12
67722;SHT31;58309;45.292;11.820;2023-02-02T15:59:39;7.21;88.80
67722;SHT31;58309;45.292;11.820;2023-02-02T16:04:41;6.83;89.76
67722;SHT31;58309;45.292;11.820;2023-02-02T16:07:21;6.64;90.21
67722;SHT31;58309;45.292;11.820;2023-02-02T16:09:47;6.46;90.50
67722;SHT31;58309;45.292;11.820;2023-02-02T16:12:18;6.25;90.96
67722;SHT31;58309;45.292;11.820;2023-02-02T16:14:50;6.05;92.37
67722;SHT31;58309;45.292;11.820;2023-02-02T16:17:22;5.89;92.38
67722;SHT31;58309;45.292;11.820;2023-02-02T16:19:57;5.65;92.88
67722;SHT31;58309;45.292;11.820;2023-02-02T16:22:24;5.51;93.29
67722;SHT31;58309;45.292;11.820;2023-02-02T16:24:52;5.37;93.55
67722;SHT31;58309;45.292;11.820;2023-02-02T16:27:21;5.28;94.45
67722;SHT31;58309;45.292;11.820;2023-02-02T16:29:48;5.15;94.75
67722;SHT31;58309;45.292;11.820;2023-02-02T16:32:24;4.95;94.65
67722;SHT31;58309;45.292;11.820;2023-02-02T16:34:50;4.83;94.94
67722;SHT31;58309;45.292;11.820;2023-02-02T16:39:50;4.65;95.96
67722;SHT31;58309;45.292;11.820;2023-02-02T16:42:30;4.65;96.96
67722;SHT31;58309;45.292;11.820;2023-02-02T16:44:58;4.54;96.57
67722;SHT31;58309;45.292;11.820;2023-02-02T16:50:06;4.47;97.95
67722;SHT31;58309;45.292;11.820;2023-02-02T16:53:19;4.38;97.25
67722;SHT31;58309;45.292;11.820;2023-02-02T16:55:46;4.27;97.66
67722;SHT31;58309;45.292;11.820;2023-02-02T16:58:15;4.18;98.19
67722;SHT31;58309;45.292;11.820;2023-02-02T17:01:00;4.11;97.76
67722;SHT31;58309;45.292;11.820;2023-02-02T17:03:31;3.94;97.25
67722;SHT31;58309;45.292;11.820;2023-02-02T17:05:58;3.94;98.67
67722;SHT31;58309;45.292;11.820;2023-02-02T17:08:32;3.85;98.09
67722;SHT31;58309;45.292;11.820;2023-02-02T17:11:04;3.86;98.21
67722;SHT31;58309;45.292;11.820;2023-02-02T17:16:00;3.72;97.95
67722;SHT31;58309;45.292;11.820;2023-02-02T17:18:27;3.72;99.06
67722;SHT31;58309;45.292;11.820;2023-02-02T17:20:55;3.59;98.31
67722;SHT31;58309;45.292;11.820;2023-02-02T17:23:29;3.52;98.12
67722;SHT31;58309;45.292;11.820;2023-02-02T17:25:56;3.45;98.31
67722;SHT31;58309;45.292;11.820;2023-02-02T17:28:24;3.46;99.45
67722;SHT31;58309;45.292;11.820;2023-02-02T17:31:02;3.34;98.82
67722;SHT31;58309;45.292;11.820;2023-02-02T17:33:32;3.21;98.32
67722;SHT31;58309;45.292;11.820;2023-02-02T17:35:58;3.25;99.67
67722;SHT31;58309;45.292;11.820;2023-02-02T17:38:24;3.22;99.59
67722;SHT31;58309;45.292;11.820;2023-02-02T17:40:50;3.21;99.24
67722;SHT31;58309;45.292;11.820;2023-02-02T17:43:17;3.19;99.99
67722;SHT31;58309;45.292;11.820;2023-02-02T17:45:42;3.11;99.18
67722;SHT31;58309;45.292;11.820;2023-02-02T17:48:10;3.19;99.99
67722;SHT31;58309;45.292;11.820;2023-02-02T17:50:37;3.19;99.99
67722;SHT31;58309;45.292;11.820;2023-02-02T17:53:03;3.15;99.99
67722;SHT31;58309;45.292;11.820;2023-02-02T17:55:31;3.04;99.98
67722;SHT31;58309;45.292;11.820;2023-02-02T17:57:58;2.98;99.99
67722;SHT31;58309;45.292;11.820;2023-02-02T18:00:26;3.26;99.99
67722;SHT31;58309;45.292;11.820;2023-02-02T18:03:03;3.16;99.99
67722;SHT31;58309;45.292;11.820;2023-02-02T18:05:31;3.39;99.99
67722;SHT31;58309;45.292;11.820;2023-02-02T18:07:56;3.36;99.99
67722;SHT31;58309;45.292;11.820;2023-02-02T18:10:22;3.32;99.99
67722;SHT31;58309;45.292;11.820;2023-02-02T18:12:48;3.28;99.99
67722;SHT31;58309;45.292;11.820;2023-02-02T18:15:14;3.38;99.99
67722;SHT31;58309;45.292;11.820;2023-02-02T18:17:40;3.28;99.99
67722;SHT31;58309;45.292;11.820;2023-02-02T18:20:07;3.07;99.81
67722;SHT31;58309;45.292;11.820;2023-02-02T18:22:32;2.93;99.76
67722;SHT31;58309;45.292;11.820;2023-02-02T18:24:58;2.76;99.62
67722;SHT31;58309;45.292;11.820;2023-02-02T18:27:24;2.70;99.98
67722;SHT31;58309;45.292;11.820;2023-02-02T18:29:50;2.68;99.99
67722;SHT31;58309;45.292;11.820;2023-02-02T18:32:16;2.56;99.99
67722;SHT31;58309;45.292;11.820;2023-02-02T18:34:43;2.52;99.99
67722;SHT31;58309;45.292;11.820;2023-02-02T18:37:09;2.40;99.94
67722;SHT31;58309;45.292;11.820;2023-02-02T18:39:35;2.39;99.99
67722;SHT31;58309;45.292;11.820;2023-02-02T18:42:00;2.44;99.99
67722;SHT31;58309;45.292;11.820;2023-02-02T18:44:27;2.39;99.99
67722;SHT31;58309;45.292;11.820;2023-02-02T18:46:52;2.29;99.99